.
WxDataArchive / Data Records for 2007-05-04
2007-05-03 May 2007 2007-05-05

Data Records for Friday, 04 May 2007

Time	Temp	Chill	HIndex	Humid	Dewpt	 Wind 	HiWind	WindDir	Rain 	Barom 
-----	----	-----	------	-----	-----	------	------	-------	-----	----- 
00:00	49.5	49.5	49.5	58	35.3	2	6	112	0.00	30.098 
00:05	49.4	49.4	49.4	59	35.7	1	4	22	0.00	30.097 
00:10	49.2	49.2	49.2	59	35.5	2	7	112	0.00	30.096 
00:15	49.1	49.1	49.1	59	35.4	2	6	112	0.00	30.095 
00:20	49.1	49.1	49.1	60	35.8	1	5	90	0.00	30.095 
00:25	48.9	48.9	48.9	60	35.6	1	6	90	0.00	30.096 
00:30	48.8	48.8	48.8	60	35.5	1	3	112	0.00	30.095 
00:35	48.5	48.5	48.5	61	35.7	0	2	112	0.00	30.095 
00:40	48.5	48.5	48.5	61	35.7	1	3	90	0.00	30.095 
00:45	48.3	48.3	48.3	61	35.5	1	3	112	0.00	30.093 
00:50	48.3	48.3	48.3	60	35.1	1	5	112	0.00	30.093 
00:55	48.3	48.3	48.3	61	35.5	1	5	112	0.00	30.093 
01:00	48.3	48.3	48.3	61	35.5	1	5	112	0.00	30.088 
01:05	48.2	48.2	48.2	62	35.8	1	3	112	0.00	30.085 
01:10	48.0	48.0	48.0	62	35.6	1	3	45	0.00	30.084 
01:15	48.0	48.0	48.0	61	35.2	1	3	45	0.00	30.082 
01:20	47.9	47.9	47.9	62	35.5	1	4	68	0.00	30.081 
01:25	47.9	47.9	47.9	62	35.5	1	3	45	0.00	30.080 
01:30	47.7	47.7	47.7	62	35.3	1	4	90	0.00	30.080 
01:35	47.7	47.7	47.7	62	35.3	1	3	90	0.00	30.081 
01:40	47.6	47.6	47.6	61	34.8	1	4	90	0.00	30.080 
01:45	47.7	47.7	47.7	62	35.3	1	3	68	0.00	30.080 
01:50	47.7	47.7	47.7	61	34.9	1	4	112	0.00	30.077 
01:55	47.7	47.7	47.7	61	34.9	1	4	112	0.00	30.076 
02:00	47.7	47.7	47.7	61	34.9	1	4	112	0.00	30.077 
02:05	47.7	47.7	47.7	61	34.9	1	4	90	0.00	30.075 
02:10	47.7	47.7	47.7	61	34.9	1	4	112	0.00	30.071 
02:15	47.6	47.6	47.6	62	35.2	1	3	112	0.00	30.069 
02:20	47.4	47.4	47.4	62	35.0	1	5	112	0.00	30.066 
02:25	47.4	47.4	47.4	62	35.0	1	3	112	0.00	30.065 
02:30	47.3	47.3	47.3	63	35.4	1	4	112	0.00	30.065 
02:35	47.3	47.3	47.3	64	35.7	1	4	112	0.00	30.064 
02:40	47.1	47.1	47.1	64	35.6	1	5	45	0.00	30.064 
02:45	47.1	47.1	47.1	64	35.6	2	6	112	0.00	30.064 
02:50	47.3	47.3	47.3	65	36.1	2	4	112	0.00	30.063 
02:55	47.1	47.1	47.1	64	35.6	2	6	90	0.00	30.064 
03:00	47.1	47.1	47.1	65	35.9	2	4	112	0.00	30.064 
03:05	47.0	47.0	47.0	64	35.5	1	6	112	0.00	30.065 
03:10	47.0	47.0	47.0	64	35.5	1	7	112	0.00	30.066 
03:15	46.8	46.8	46.8	64	35.3	1	6	112	0.00	30.066 
03:20	46.8	46.8	46.8	65	35.7	1	4	112	0.00	30.067 
03:25	46.7	46.7	46.7	65	35.6	2	4	112	0.00	30.068 
03:30	46.4	46.4	46.4	65	35.3	1	2	112	0.00	30.072 
03:35	46.2	46.2	46.2	65	35.1	1	4	90	0.00	30.072 
03:40	46.1	46.1	46.1	66	35.4	1	4	112	0.00	30.072 
03:45	45.8	45.8	45.8	67	35.5	1	3	112	0.00	30.069 
03:50	45.7	45.7	45.7	67	35.4	1	4	68	0.00	30.073 
03:55	45.7	45.7	45.7	67	35.4	1	4	112	0.00	30.074 
04:00	45.7	45.7	45.7	67	35.4	1	4	112	0.00	30.070 
04:05	45.7	45.7	45.7	66	35.0	1	4	90	0.00	30.071 
04:10	45.7	45.7	45.7	66	35.0	1	5	90	0.00	30.075 
04:15	45.7	45.7	45.7	67	35.4	1	6	90	0.00	30.078 
04:20	45.5	45.5	45.5	67	35.2	1	5	90	0.00	30.075 
04:25	45.2	45.2	45.2	68	35.3	1	4	90	0.00	30.076 
04:30	45.1	45.1	45.1	68	35.2	1	4	112	0.00	30.078 
04:35	44.9	44.9	44.9	69	35.4	1	2	112	0.00	30.080 
04:40	44.9	44.9	44.9	68	35.0	1	3	112	0.00	30.079 
04:45	45.1	45.1	45.1	69	35.5	1	3	68	0.00	30.077 
04:50	45.1	45.1	45.1	68	35.2	1	5	90	0.00	30.077 
04:55	45.1	45.1	45.1	68	35.2	1	3	45	0.00	30.077 
05:00	45.1	45.1	45.1	68	35.2	1	5	68	0.00	30.075 
05:05	45.1	45.1	45.1	67	34.8	1	5	112	0.00	30.076 
05:10	45.1	45.1	45.1	68	35.2	1	4	90	0.00	30.074 
05:15	45.1	45.1	45.1	67	34.8	1	5	112	0.00	30.080 
05:20	45.1	45.1	45.1	68	35.2	1	3	112	0.00	30.081 
05:25	44.9	44.9	44.9	68	35.0	1	3	112	0.00	30.081 
05:30	44.9	44.9	44.9	68	35.0	1	4	90	0.00	30.083 
05:35	44.9	44.9	44.9	68	35.0	1	4	112	0.00	30.084 
05:40	44.9	44.9	44.9	68	35.0	1	4	90	0.00	30.084 
05:45	44.9	44.9	44.9	68	35.0	2	5	90	0.00	30.084 
05:50	44.9	44.9	44.9	68	35.0	1	6	112	0.00	30.083 
05:55	45.1	45.1	45.1	68	35.2	1	4	90	0.00	30.085 
06:00	45.2	45.2	45.2	68	35.3	1	5	90	0.00	30.086 
06:05	45.2	45.2	45.2	68	35.3	2	5	112	0.00	30.089 
06:10	45.4	45.4	45.4	68	35.5	1	3	112	0.00	30.088 
06:15	45.7	45.7	45.7	68	35.8	1	5	112	0.00	30.086 
06:20	46.0	46.0	46.0	67	35.7	2	6	112	0.00	30.087 
06:25	46.4	46.4	46.4	66	35.7	2	5	90	0.00	30.088 
06:30	46.8	46.8	46.8	65	35.7	2	5	90	0.00	30.090 
06:35	47.3	47.3	47.3	66	36.5	2	6	112	0.00	30.091 
06:40	47.7	47.7	47.7	64	36.1	2	6	112	0.00	30.092 
06:45	47.7	46.2	47.7	64	36.1	4	10	112	0.00	30.093 
06:50	47.9	46.4	47.9	65	36.7	4	7	90	0.00	30.091 
06:55	48.0	48.0	48.0	64	36.4	3	9	112	0.00	30.093 
07:00	48.2	48.2	48.2	65	37.0	3	6	90	0.00	30.091 
07:05	48.5	48.5	48.5	65	37.3	3	7	112	0.00	30.093 
07:10	48.8	48.8	48.8	64	37.2	3	6	112	0.00	30.090 
07:15	49.1	49.1	49.1	64	37.5	2	7	112	0.00	30.090 
07:20	49.5	49.5	49.5	65	38.2	2	5	90	0.00	30.094 
07:25	49.8	48.6	49.8	62	37.3	4	9	112	0.00	30.095 
07:30	49.9	48.8	49.9	63	37.8	4	10	90	0.00	30.096 
07:35	50.1	50.1	50.1	63	38.0	3	7	112	0.00	30.096 
07:40	50.5	50.5	50.5	62	38.0	3	6	112	0.00	30.095 
07:45	50.7	50.7	50.7	62	38.2	3	7	112	0.00	30.095 
07:50	50.8	50.8	50.8	62	38.3	4	9	90	0.00	30.097 
07:55	51.3	51.3	51.3	64	39.5	2	7	90	0.00	30.097 
08:00	51.9	51.9	51.9	62	39.3	3	6	112	0.00	30.098 
08:05	52.3	52.3	52.3	62	39.7	2	4	90	0.00	30.099 
08:10	52.3	52.3	52.3	60	38.8	3	7	112	0.00	30.098 
08:15	52.5	52.5	52.5	61	39.4	3	8	90	0.00	30.096 
08:20	52.9	52.9	52.9	62	40.2	2	6	112	0.00	30.095 
08:25	53.3	53.3	53.3	61	40.2	2	7	112	0.00	30.097 
08:30	53.6	53.6	53.6	59	39.6	3	8	112	0.00	30.093 
08:35	54.1	54.1	54.1	60	40.5	3	7	112	0.00	30.095 
08:40	54.7	54.7	54.7	61	41.5	3	5	90	0.00	30.094 
08:45	55.4	55.4	55.4	59	41.3	2	6	112	0.00	30.096 
08:50	56.3	56.3	56.3	57	41.3	3	11	112	0.00	30.093 
08:55	56.3	56.3	56.3	59	42.2	5	11	112	0.00	30.093 
09:00	56.7	56.7	56.7	58	42.1	4	7	112	0.00	30.092 
09:05	57.3	57.3	57.3	57	42.2	5	12	112	0.00	30.091 
09:10	57.6	57.6	57.6	58	42.9	4	8	112	0.00	30.093 
09:15	58.3	58.3	58.3	57	43.1	4	12	90	0.00	30.089 
09:20	58.6	58.6	58.6	59	44.3	4	10	112	0.00	30.091 
09:25	59.3	59.3	59.3	58	44.5	3	6	90	0.00	30.088 
09:30	59.9	59.9	59.9	58	45.1	3	10	112	0.00	30.083 
09:35	60.1	60.1	60.1	58	45.3	4	8	90	0.00	30.082 
09:40	60.4	60.4	60.4	60	46.4	4	7	90	0.00	30.083 
09:45	60.7	60.7	60.7	59	46.3	3	7	112	0.00	30.080 
09:50	61.3	61.3	61.3	56	45.5	4	11	112	0.00	30.080 
09:55	61.6	61.6	61.6	54	44.8	3	10	112	0.00	30.079 
10:00	61.8	61.8	61.8	58	46.9	5	10	90	0.00	30.077 
10:05	62.3	62.3	62.3	57	46.9	3	10	112	0.00	30.079 
10:10	62.6	62.6	62.6	59	48.1	4	11	112	0.00	30.080 
10:15	63.4	63.4	63.4	54	46.5	4	9	112	0.00	30.078 
10:20	63.5	63.5	63.5	55	47.0	4	10	112	0.00	30.077 
10:25	63.5	63.5	63.5	56	47.5	3	6	112	0.00	30.077 
10:30	63.7	63.7	63.7	59	49.1	5	11	90	0.00	30.078 
10:35	64.2	64.2	64.2	57	48.6	5	9	90	0.00	30.079 
10:40	64.8	64.8	64.8	55	48.2	4	9	112	0.00	30.079 
10:45	65.6	65.6	65.6	56	49.5	3	6	112	0.00	30.078 
10:50	65.8	65.8	65.8	54	48.7	5	10	112	0.00	30.078 
10:55	65.8	65.8	65.8	54	48.7	5	15	112	0.00	30.079 
11:00	65.8	65.8	65.8	55	49.2	5	12	112	0.00	30.077 
11:05	66.3	66.3	66.3	53	48.6	4	9	90	0.00	30.077 
11:10	66.3	66.3	66.3	54	49.1	6	11	112	0.00	30.076 
11:15	66.3	66.3	66.3	55	49.6	6	12	112	0.00	30.077 
11:20	66.1	66.1	66.1	54	49.0	6	13	90	0.00	30.076 
11:25	66.6	66.6	66.6	57	50.9	4	14	112	0.00	30.076 
11:30	67.4	67.4	67.4	55	50.7	5	15	112	0.00	30.075 
11:35	67.9	67.9	67.9	53	50.1	6	11	112	0.00	30.071 
11:40	67.9	67.9	67.9	54	50.6	6	13	112	0.00	30.072 
11:45	67.8	67.8	67.8	54	50.5	7	13	112	0.00	30.070 
11:50	68.1	68.1	68.1	55	51.3	5	11	112	0.00	30.068 
11:55	68.4	68.4	68.4	55	51.6	6	13	112	0.00	30.067 
12:00	68.8	68.8	68.8	53	51.0	5	15	112	0.00	30.067 
12:05	69.1	69.1	69.1	51	50.2	6	13	90	0.00	30.068 
12:10	69.3	69.3	69.3	50	49.8	7	14	90	0.00	30.065 
12:15	69.4	69.4	69.4	50	49.9	7	13	112	0.00	30.064 
12:20	70.1	70.1	70.1	50	50.6	6	15	112	0.00	30.061 
12:25	70.3	70.3	70.3	46	48.5	6	12	112	0.00	30.059 
12:30	70.3	70.3	70.3	44	47.3	7	21	112	0.00	30.059 
12:35	70.4	70.4	70.4	46	48.6	7	13	112	0.00	30.056 
12:40	70.8	70.8	70.8	46	49.0	6	12	112	0.00	30.056 
12:45	70.9	70.9	70.9	47	49.7	6	12	112	0.00	30.052 
12:50	70.9	70.9	70.9	46	49.1	6	13	112	0.00	30.050 
12:55	70.3	70.3	70.3	42	46.1	8	14	112	0.00	30.050 
13:00	70.3	70.3	70.3	41	45.5	6	12	112	0.00	30.046 
13:05	70.3	70.3	70.3	41	45.5	8	15	112	0.00	30.045 
13:10	70.6	70.6	70.6	43	47.0	5	9	112	0.00	30.044 
13:15	71.1	71.1	71.1	39	44.9	7	13	112	0.00	30.044 
13:20	71.3	71.3	71.3	39	45.1	7	13	112	0.00	30.044 
13:25	71.6	71.6	71.6	34	41.7	8	16	112	0.00	30.041 
13:30	71.5	71.5	71.5	39	45.2	6	15	112	0.00	30.041 
13:35	71.1	71.1	71.1	39	44.9	6	17	112	0.00	30.041 
13:40	71.1	71.1	71.1	38	44.2	5	13	90	0.00	30.038 
13:45	71.5	71.5	71.5	36	43.1	6	13	112	0.00	30.037 
13:50	71.8	71.8	71.8	37	44.1	6	11	112	0.00	30.036 
13:55	71.8	71.8	71.8	37	44.1	6	11	112	0.00	30.037 
14:00	71.8	71.8	71.8	36	43.4	7	12	112	0.00	30.038 
14:05	71.8	71.8	71.8	36	43.4	5	11	112	0.00	30.035 
14:10	71.8	71.8	71.8	36	43.4	5	11	90	0.00	30.033 
14:15	71.5	71.5	71.5	35	42.4	7	15	112	0.00	30.030 
14:20	72.0	72.0	72.0	35	42.8	6	11	90	0.00	30.030 
14:25	72.3	72.3	72.3	35	43.1	6	13	112	0.00	30.029 
14:30	72.3	72.3	72.3	36	43.8	6	12	112	0.00	30.028 
14:35	72.3	72.3	72.3	35	43.1	6	11	112	0.00	30.028 
14:40	71.8	71.8	71.8	35	42.7	7	12	112	0.00	30.028 
14:45	71.5	71.5	71.5	36	43.1	5	9	112	0.00	30.025 
14:50	71.3	71.3	71.3	34	41.5	6	12	112	0.00	30.023 
14:55	71.1	71.1	71.1	39	44.9	4	10	112	0.00	30.019 
15:00	71.1	71.1	71.1	34	41.3	5	11	112	0.00	30.018 
15:05	71.3	71.3	71.3	36	43.0	5	10	112	0.00	30.016 
15:10	71.5	71.5	71.5	39	45.2	6	11	112	0.00	30.012 
15:15	71.8	71.8	71.8	35	42.7	4	11	112	0.00	30.013 
15:20	72.0	72.0	72.0	32	40.5	4	10	112	0.00	30.010 
15:25	72.0	72.0	72.0	32	40.5	5	12	112	0.00	30.006 
15:30	72.1	72.1	72.1	40	46.4	4	9	112	0.00	30.004 
15:35	72.1	72.1	72.1	42	47.7	6	12	112	0.00	29.999 
15:40	72.1	72.1	72.1	43	48.4	6	13	112	0.00	29.998 
15:45	72.3	72.3	72.3	47	50.9	5	13	112	0.00	29.997 
15:50	72.5	72.5	72.5	46	50.5	5	13	112	0.00	29.997 
15:55	72.3	72.3	72.3	43	48.5	6	11	112	0.00	29.996 
16:00	72.0	72.0	72.0	44	48.9	6	12	112	0.00	29.994 
16:05	72.0	72.0	72.0	43	48.3	6	11	112	0.00	29.995 
16:10	72.0	72.0	72.0	42	47.6	8	17	112	0.00	29.992 
16:15	71.6	71.6	71.6	42	47.3	7	15	90	0.00	29.989 
16:20	71.6	71.6	71.6	41	46.6	7	13	90	0.00	29.986 
16:25	71.6	71.6	71.6	43	47.9	7	13	90	0.00	29.985 
16:30	71.8	71.8	71.8	42	47.5	6	11	112	0.00	29.984 
16:35	71.5	71.5	71.5	42	47.2	8	12	112	0.00	29.983 
16:40	71.3	71.3	71.3	42	47.0	8	14	112	0.00	29.983 
16:45	71.1	71.1	71.1	42	46.8	7	13	112	0.00	29.983 
16:50	70.8	70.8	70.8	41	45.9	7	15	112	0.00	29.983 
16:55	70.6	70.6	70.6	44	47.6	5	12	90	0.00	29.982 
17:00	70.3	70.3	70.3	44	47.3	5	11	90	0.00	29.984 
17:05	70.1	70.1	70.1	43	46.6	5	11	112	0.00	29.984 
17:10	70.1	70.1	70.1	42	45.9	6	15	112	0.00	29.984 
17:15	70.3	70.3	70.3	42	46.1	6	11	112	0.00	29.984 
17:20	70.3	70.3	70.3	42	46.1	6	12	90	0.00	29.984 
17:25	70.4	70.4	70.4	43	46.8	4	8	90	0.00	29.984 
17:30	70.4	70.4	70.4	42	46.2	5	12	112	0.00	29.984 
17:35	70.3	70.3	70.3	43	46.7	6	13	112	0.00	29.984 
17:40	70.1	70.1	70.1	44	47.2	4	10	90	0.00	29.984 
17:45	70.1	70.1	70.1	43	46.6	5	10	90	0.00	29.984 
17:50	69.6	69.6	69.6	42	45.5	5	14	112	0.00	29.984 
17:55	68.9	68.9	68.9	42	44.9	5	12	112	0.00	29.984 
18:00	68.6	68.6	68.6	43	45.2	5	12	112	0.00	29.984 
18:05	68.3	68.3	68.3	42	44.3	6	13	112	0.00	29.983 
18:10	68.1	68.1	68.1	43	44.7	4	8	112	0.00	29.982 
18:15	67.8	67.8	67.8	43	44.5	4	9	112	0.00	29.982 
18:20	67.6	67.6	67.6	43	44.3	5	11	90	0.00	29.982 
18:25	67.3	67.3	67.3	43	44.0	4	10	112	0.00	29.985 
18:30	66.9	66.9	66.9	42	43.1	5	10	112	0.00	29.985 
18:35	66.4	66.4	66.4	42	42.6	5	10	90	0.00	29.987 
18:40	66.1	66.1	66.1	43	42.9	4	13	112	0.00	29.989 
18:45	65.8	65.8	65.8	42	42.1	5	11	112	0.00	29.989 
18:50	65.6	65.6	65.6	43	42.5	4	14	112	0.00	29.991 
18:55	65.3	65.3	65.3	43	42.2	4	11	90	0.00	29.994 
19:00	65.2	65.2	65.2	44	42.7	4	9	112	0.00	29.998 
19:05	64.8	64.8	64.8	44	42.4	3	7	112	0.00	29.995 
19:10	64.5	64.5	64.5	44	42.1	3	9	112	0.00	29.997 
19:15	64.2	64.2	64.2	45	42.4	3	6	112	0.00	29.998 
19:20	63.9	63.9	63.9	43	41.0	4	9	112	0.00	29.999 
19:25	63.5	63.5	63.5	42	40.0	4	10	112	0.00	30.000 
19:30	63.2	63.2	63.2	42	39.7	5	11	90	0.00	30.002 
19:35	63.1	63.1	63.1	41	39.0	4	15	112	0.00	30.003 
19:40	62.9	62.9	62.9	42	39.5	5	14	112	0.00	30.007 
19:45	62.6	62.6	62.6	42	39.2	5	13	112	0.00	30.007 
19:50	62.4	62.4	62.4	44	40.2	2	6	90	0.00	30.006 
19:55	62.1	62.1	62.1	43	39.3	4	14	90	0.00	30.009 
20:00	61.8	61.8	61.8	41	37.8	4	10	112	0.00	30.011 
20:05	61.5	61.5	61.5	41	37.6	4	7	90	0.00	30.007 
20:10	61.3	61.3	61.3	39	36.1	5	13	112	0.00	30.008 
20:15	61.0	61.0	61.0	41	37.1	3	9	112	0.00	30.009 
20:20	60.7	60.7	60.7	43	38.1	3	7	112	0.00	30.009 
20:25	60.5	60.5	60.5	43	37.9	4	9	112	0.00	30.010 
20:30	60.4	60.4	60.4	44	38.4	3	7	90	0.00	30.012 
20:35	60.1	60.1	60.1	43	37.5	3	9	112	0.00	30.013 
20:40	59.9	59.9	59.9	42	36.8	4	10	112	0.00	30.014 
20:45	59.8	59.8	59.8	43	37.3	3	9	90	0.00	30.015 
20:50	59.6	59.6	59.6	43	37.1	3	7	112	0.00	30.015 
20:55	59.5	59.5	59.5	43	37.0	2	6	112	0.00	30.015 
21:00	59.3	59.3	59.3	45	38.0	2	11	112	0.00	30.017 
21:05	59.3	59.3	59.3	43	36.8	3	10	90	0.00	30.014 
21:10	59.2	59.2	59.2	43	36.7	2	4	112	0.00	30.015 
21:15	59.0	59.0	59.0	43	36.5	2	5	112	0.00	30.017 
21:20	58.9	58.9	58.9	43	36.4	2	6	112	0.00	30.021 
21:25	58.7	58.7	58.7	43	36.3	3	10	112	0.00	30.021 
21:30	58.6	58.6	58.6	42	35.6	3	6	90	0.00	30.023 
21:35	58.4	58.4	58.4	43	36.0	2	5	90	0.00	30.023 
21:40	58.3	58.3	58.3	42	35.3	3	6	112	0.00	30.023 
21:45	58.3	58.3	58.3	43	35.9	3	7	112	0.00	30.023 
21:50	58.1	58.1	58.1	44	36.3	2	4	90	0.00	30.024 
21:55	57.8	57.8	57.8	45	36.6	2	5	112	0.00	30.024 
22:00	57.6	57.6	57.6	45	36.4	2	4	112	0.00	30.022 
22:05	57.6	57.6	57.6	45	36.4	1	4	112	0.00	30.022 
22:10	57.5	57.5	57.5	46	36.9	2	4	112	0.00	30.015 
22:15	57.2	57.2	57.2	46	36.6	2	5	90	0.00	30.014 
22:20	57.2	57.2	57.2	45	36.1	2	7	112	0.00	30.015 
22:25	57.2	57.2	57.2	45	36.1	3	5	112	0.00	30.013 
22:30	57.2	57.2	57.2	44	35.5	2	6	90	0.00	30.014 
22:35	57.2	57.2	57.2	45	36.1	2	4	112	0.00	30.013 
22:40	57.2	57.2	57.2	44	35.5	3	7	90	0.00	30.013 
22:45	57.2	57.2	57.2	44	35.5	2	4	90	0.00	30.012 
22:50	57.0	57.0	57.0	45	35.9	1	5	112	0.00	30.011 
22:55	56.9	56.9	56.9	46	36.3	2	4	112	0.00	30.010 
23:00	56.9	56.9	56.9	47	36.9	1	4	112	0.00	30.010 
23:05	56.7	56.7	56.7	46	36.2	1	7	90	0.00	30.007 
23:10	56.6	56.6	56.6	47	36.6	1	3	68	0.00	30.008 
23:15	56.5	56.5	56.5	47	36.5	1	3	90	0.00	30.007 
23:20	56.3	56.3	56.3	48	36.9	1	4	112	0.00	30.009 
23:25	56.2	56.2	56.2	48	36.8	1	3	112	0.00	30.008 
23:30	56.0	56.0	56.0	48	36.6	1	3	112	0.00	30.009 
23:35	55.9	55.9	55.9	47	36.0	1	3	112	0.00	30.008 
23:40	55.7	55.7	55.7	49	36.8	1	4	112	0.00	30.008 
23:45	55.7	55.7	55.7	49	36.8	1	4	90	0.00	30.008 
23:50	55.6	55.6	55.6	48	36.2	1	4	90	0.00	30.008 
23:55	55.4	55.4	55.4	49	36.6	1	5	112	0.00	30.006 

CoCoRaHS
IN-AL-39
A2 Web Hosting
Creative Commons License
GoDaddy
Look for:

loaded 2017-10-20 19:39:49 • last modified 2010-11-18 10:43:29
Privacy PolicyDisclaimer
• wx.awcolley.com is powered by PmWiki v.2002016 •
• all content (unless otherwise noted) © 2017 A W Colley